sensor_id;sensor_type;location;lat;lon;timestamp;pressure;altitude;pressure_sealevel;temperature;humidity
52935;BME280;38802;50.198;19.796;2022-08-14T00:02:25;95888.04;;;16.91;91.68
52935;BME280;38802;50.198;19.796;2022-08-14T00:04:58;95886.85;;;16.90;91.65
52935;BME280;38802;50.198;19.796;2022-08-14T00:07:27;95882.88;;;16.89;91.70
52935;BME280;38802;50.198;19.796;2022-08-14T00:09:55;95884.20;;;16.89;91.95
52935;BME280;38802;50.198;19.796;2022-08-14T00:12:51;95879.98;;;16.87;91.99
52935;BME280;38802;50.198;19.796;2022-08-14T00:15:30;95874.14;;;16.86;91.83
52935;BME280;38802;50.198;19.796;2022-08-14T00:18:17;95869.07;;;16.86;91.89
52935;BME280;38802;50.198;19.796;2022-08-14T00:21:06;95864.08;;;16.85;91.93
52935;BME280;38802;50.198;19.796;2022-08-14T00:23:39;95860.30;;;16.85;91.93
52935;BME280;38802;50.198;19.796;2022-08-14T00:26:07;95857.14;;;16.85;91.88
52935;BME280;38802;50.198;19.796;2022-08-14T00:28:52;95858.75;;;16.84;91.92
52935;BME280;38802;50.198;19.796;2022-08-14T00:31:21;95858.66;;;16.83;91.78
52935;BME280;38802;50.198;19.796;2022-08-14T00:34:10;95859.41;;;16.85;91.64
52935;BME280;38802;50.198;19.796;2022-08-14T00:36:58;95858.36;;;16.84;91.70
52935;BME280;38802;50.198;19.796;2022-08-14T00:39:28;95851.84;;;16.85;91.60
52935;BME280;38802;50.198;19.796;2022-08-14T00:41:57;95851.73;;;16.86;91.67
52935;BME280;38802;50.198;19.796;2022-08-14T00:44:25;95850.45;;;16.86;91.53
52935;BME280;38802;50.198;19.796;2022-08-14T00:47:01;95845.67;;;16.87;91.60
52935;BME280;38802;50.198;19.796;2022-08-14T00:49:30;95841.79;;;16.87;91.69
52935;BME280;38802;50.198;19.796;2022-08-14T00:52:11;95840.59;;;16.85;91.95
52935;BME280;38802;50.198;19.796;2022-08-14T00:54:46;95837.05;;;16.84;91.87
52935;BME280;38802;50.198;19.796;2022-08-14T00:57:27;95836.92;;;16.82;91.94
52935;BME280;38802;50.198;19.796;2022-08-14T00:59:56;95836.61;;;16.82;91.97
52935;BME280;38802;50.198;19.796;2022-08-14T01:02:24;95836.05;;;16.80;92.08
52935;BME280;38802;50.198;19.796;2022-08-14T01:04:58;95836.19;;;16.79;91.95
52935;BME280;38802;50.198;19.796;2022-08-14T01:07:28;95837.15;;;16.78;92.13
52935;BME280;38802;50.198;19.796;2022-08-14T01:10:13;95840.66;;;16.78;92.36
52935;BME280;38802;50.198;19.796;2022-08-14T01:12:42;95837.36;;;16.77;92.49
52935;BME280;38802;50.198;19.796;2022-08-14T01:15:15;95833.61;;;16.75;92.34
52935;BME280;38802;50.198;19.796;2022-08-14T01:17:58;95835.61;;;16.73;92.39
52935;BME280;38802;50.198;19.796;2022-08-14T01:20:45;95833.27;;;16.73;92.29
52935;BME280;38802;50.198;19.796;2022-08-14T01:23:56;95828.54;;;16.72;92.70
52935;BME280;38802;50.198;19.796;2022-08-14T01:26:25;95829.17;;;16.72;92.39
52935;BME280;38802;50.198;19.796;2022-08-14T01:29:06;95829.37;;;16.71;92.41
52935;BME280;38802;50.198;19.796;2022-08-14T01:31:42;95827.98;;;16.71;92.31
52935;BME280;38802;50.198;19.796;2022-08-14T01:34:18;95832.40;;;16.71;92.58
52935;BME280;38802;50.198;19.796;2022-08-14T01:37:07;95826.22;;;16.70;92.33
52935;BME280;38802;50.198;19.796;2022-08-14T01:39:37;95824.61;;;16.70;92.29
52935;BME280;38802;50.198;19.796;2022-08-14T01:42:06;95826.02;;;16.70;92.38
52935;BME280;38802;50.198;19.796;2022-08-14T01:44:35;95825.58;;;16.71;92.58
52935;BME280;38802;50.198;19.796;2022-08-14T01:47:09;95826.38;;;16.70;92.25
52935;BME280;38802;50.198;19.796;2022-08-14T01:49:50;95825.98;;;16.70;92.35
52935;BME280;38802;50.198;19.796;2022-08-14T01:52:33;95827.04;;;16.70;92.30
52935;BME280;38802;50.198;19.796;2022-08-14T01:55:25;95829.41;;;16.70;92.37
52935;BME280;38802;50.198;19.796;2022-08-14T01:58:00;95828.69;;;16.69;92.22
52935;BME280;38802;50.198;19.796;2022-08-14T02:00:52;95825.36;;;16.70;92.45
52935;BME280;38802;50.198;19.796;2022-08-14T02:03:26;95826.05;;;16.70;92.24
52935;BME280;38802;50.198;19.796;2022-08-14T02:05:59;95820.79;;;16.70;92.36
52935;BME280;38802;50.198;19.796;2022-08-14T02:08:48;95818.92;;;16.69;92.42
52935;BME280;38802;50.198;19.796;2022-08-14T02:11:24;95817.67;;;16.69;92.23
52935;BME280;38802;50.198;19.796;2022-08-14T02:14:10;95813.20;;;16.69;92.19
52935;BME280;38802;50.198;19.796;2022-08-14T02:16:44;95813.17;;;16.69;92.25
52935;BME280;38802;50.198;19.796;2022-08-14T02:19:18;95810.27;;;16.70;92.33
52935;BME280;38802;50.198;19.796;2022-08-14T02:21:49;95806.13;;;16.69;92.37
52935;BME280;38802;50.198;19.796;2022-08-14T02:24:19;95804.75;;;16.69;92.40
52935;BME280;38802;50.198;19.796;2022-08-14T02:27:07;95804.95;;;16.69;92.38
52935;BME280;38802;50.198;19.796;2022-08-14T02:29:58;95805.05;;;16.68;92.39
52935;BME280;38802;50.198;19.796;2022-08-14T02:32:30;95806.48;;;16.68;92.35
52935;BME280;38802;50.198;19.796;2022-08-14T02:35:08;95800.39;;;16.67;92.38
52935;BME280;38802;50.198;19.796;2022-08-14T02:37:40;95798.05;;;16.68;92.40
52935;BME280;38802;50.198;19.796;2022-08-14T02:40:19;95801.14;;;16.68;92.35
52935;BME280;38802;50.198;19.796;2022-08-14T02:43:00;95799.59;;;16.68;92.67
52935;BME280;38802;50.198;19.796;2022-08-14T02:45:30;95796.99;;;16.66;92.72
52935;BME280;38802;50.198;19.796;2022-08-14T02:48:12;95800.67;;;16.64;92.55
52935;BME280;38802;50.198;19.796;2022-08-14T02:51:08;95801.91;;;16.64;92.49
52935;BME280;38802;50.198;19.796;2022-08-14T02:53:38;95803.38;;;16.63;92.43
52935;BME280;38802;50.198;19.796;2022-08-14T02:56:12;95803.55;;;16.62;92.48
52935;BME280;38802;50.198;19.796;2022-08-14T02:59:04;95801.17;;;16.61;92.49
52935;BME280;38802;50.198;19.796;2022-08-14T03:01:34;95797.59;;;16.62;92.40
52935;BME280;38802;50.198;19.796;2022-08-14T03:04:18;95795.29;;;16.62;92.35
52935;BME280;38802;50.198;19.796;2022-08-14T03:06:48;95797.90;;;16.61;92.66
52935;BME280;38802;50.198;19.796;2022-08-14T03:09:38;95797.96;;;16.60;92.57
52935;BME280;38802;50.198;19.796;2022-08-14T03:12:26;95795.04;;;16.61;92.50
52935;BME280;38802;50.198;19.796;2022-08-14T03:15:00;95793.81;;;16.61;92.55
52935;BME280;38802;50.198;19.796;2022-08-14T03:17:45;95790.83;;;16.61;92.67
52935;BME280;38802;50.198;19.796;2022-08-14T03:20:26;95792.34;;;16.60;92.67
52935;BME280;38802;50.198;19.796;2022-08-14T03:22:57;95789.73;;;16.60;92.61
52935;BME280;38802;50.198;19.796;2022-08-14T03:25:32;95794.81;;;16.60;92.92
52935;BME280;38802;50.198;19.796;2022-08-14T03:28:05;95797.35;;;16.59;92.72
52935;BME280;38802;50.198;19.796;2022-08-14T03:30:34;95796.26;;;16.60;92.61
52935;BME280;38802;50.198;19.796;2022-08-14T03:33:10;95796.75;;;16.60;92.56
52935;BME280;38802;50.198;19.796;2022-08-14T03:35:39;95795.46;;;16.62;92.56
52935;BME280;38802;50.198;19.796;2022-08-14T03:38:29;95790.42;;;16.61;92.78
52935;BME280;38802;50.198;19.796;2022-08-14T03:41:20;95790.41;;;16.60;92.70
52935;BME280;38802;50.198;19.796;2022-08-14T03:43:52;95790.75;;;16.59;92.91
52935;BME280;38802;50.198;19.796;2022-08-14T03:46:37;95791.08;;;16.57;92.92
52935;BME280;38802;50.198;19.796;2022-08-14T03:49:24;95796.71;;;16.56;92.68
52935;BME280;38802;50.198;19.796;2022-08-14T03:51:57;95796.71;;;16.56;92.97
52935;BME280;38802;50.198;19.796;2022-08-14T03:54:28;95792.77;;;16.55;93.13
52935;BME280;38802;50.198;19.796;2022-08-14T03:56:57;95792.48;;;16.54;92.98
52935;BME280;38802;50.198;19.796;2022-08-14T03:59:31;95793.46;;;16.55;92.90
52935;BME280;38802;50.198;19.796;2022-08-14T04:02:02;95793.44;;;16.55;92.90
52935;BME280;38802;50.198;19.796;2022-08-14T04:04:51;95793.14;;;16.55;93.09
52935;BME280;38802;50.198;19.796;2022-08-14T04:07:20;95793.17;;;16.55;93.04
52935;BME280;38802;50.198;19.796;2022-08-14T04:09:49;95787.70;;;16.55;92.90
52935;BME280;38802;50.198;19.796;2022-08-14T04:12:19;95786.49;;;16.55;92.95
52935;BME280;38802;50.198;19.796;2022-08-14T04:14:53;95786.16;;;16.56;92.99
52935;BME280;38802;50.198;19.796;2022-08-14T04:17:22;95786.45;;;16.57;92.91
52935;BME280;38802;50.198;19.796;2022-08-14T04:19:51;95790.95;;;16.57;92.89
52935;BME280;38802;50.198;19.796;2022-08-14T04:22:19;95786.84;;;16.58;92.92
52935;BME280;38802;50.198;19.796;2022-08-14T04:24:49;95786.90;;;16.59;93.01
52935;BME280;38802;50.198;19.796;2022-08-14T04:27:17;95784.79;;;16.59;92.99
52935;BME280;38802;50.198;19.796;2022-08-14T04:29:45;95785.84;;;16.59;93.01
52935;BME280;38802;50.198;19.796;2022-08-14T04:32:14;95786.70;;;16.59;93.07
52935;BME280;38802;50.198;19.796;2022-08-14T04:35:02;95784.65;;;16.60;92.98
52935;BME280;38802;50.198;19.796;2022-08-14T04:37:37;95784.35;;;16.61;93.21
52935;BME280;38802;50.198;19.796;2022-08-14T04:40:24;95782.21;;;16.61;93.14
52935;BME280;38802;50.198;19.796;2022-08-14T04:43:12;95784.70;;;16.62;92.91
52935;BME280;38802;50.198;19.796;2022-08-14T04:46:08;95781.50;;;16.65;92.96
52935;BME280;38802;50.198;19.796;2022-08-14T04:48:57;95779.57;;;16.67;93.17
52935;BME280;38802;50.198;19.796;2022-08-14T04:51:27;95779.67;;;16.66;93.10
52935;BME280;38802;50.198;19.796;2022-08-14T04:54:04;95779.14;;;16.67;93.03
52935;BME280;38802;50.198;19.796;2022-08-14T04:56:32;95780.05;;;16.69;92.95
52935;BME280;38802;50.198;19.796;2022-08-14T04:59:04;95777.09;;;16.70;92.90
52935;BME280;38802;50.198;19.796;2022-08-14T05:01:39;95774.41;;;16.70;92.90
52935;BME280;38802;50.198;19.796;2022-08-14T05:04:19;95773.79;;;16.71;93.03
52935;BME280;38802;50.198;19.796;2022-08-14T05:06:50;95769.71;;;16.72;93.06
52935;BME280;38802;50.198;19.796;2022-08-14T05:09:22;95767.69;;;16.72;93.12
52935;BME280;38802;50.198;19.796;2022-08-14T05:11:50;95768.13;;;16.72;93.25
52935;BME280;38802;50.198;19.796;2022-08-14T05:14:20;95764.81;;;16.72;93.30
52935;BME280;38802;50.198;19.796;2022-08-14T05:17:10;95765.49;;;16.71;93.06
52935;BME280;38802;50.198;19.796;2022-08-14T05:19:39;95765.72;;;16.73;93.14
52935;BME280;38802;50.198;19.796;2022-08-14T05:22:28;95761.98;;;16.75;93.43
52935;BME280;38802;50.198;19.796;2022-08-14T05:24:56;95766.43;;;16.74;93.25
52935;BME280;38802;50.198;19.796;2022-08-14T05:27:25;95761.00;;;16.74;93.17
52935;BME280;38802;50.198;19.796;2022-08-14T05:29:58;95761.19;;;16.75;93.19
52935;BME280;38802;50.198;19.796;2022-08-14T05:32:30;95761.42;;;16.75;93.10
52935;BME280;38802;50.198;19.796;2022-08-14T05:34:59;95760.98;;;16.76;93.11
52935;BME280;38802;50.198;19.796;2022-08-14T05:37:28;95758.83;;;16.76;93.19
52935;BME280;38802;50.198;19.796;2022-08-14T05:39:58;95758.98;;;16.76;93.26
52935;BME280;38802;50.198;19.796;2022-08-14T05:42:27;95757.89;;;16.76;93.15
52935;BME280;38802;50.198;19.796;2022-08-14T05:45:15;95755.31;;;16.78;93.11
52935;BME280;38802;50.198;19.796;2022-08-14T05:47:44;95752.41;;;16.78;93.21
52935;BME280;38802;50.198;19.796;2022-08-14T05:50:17;95752.42;;;16.78;93.25
52935;BME280;38802;50.198;19.796;2022-08-14T05:52:48;95754.22;;;16.79;93.32
52935;BME280;38802;50.198;19.796;2022-08-14T05:55:19;95754.97;;;16.81;93.29
52935;BME280;38802;50.198;19.796;2022-08-14T05:57:53;95759.64;;;16.84;93.43
52935;BME280;38802;50.198;19.796;2022-08-14T06:00:32;95759.13;;;16.87;93.24
52935;BME280;38802;50.198;19.796;2022-08-14T06:03:15;95760.59;;;16.89;93.41
52935;BME280;38802;50.198;19.796;2022-08-14T06:05:46;95762.66;;;16.91;93.30
52935;BME280;38802;50.198;19.796;2022-08-14T06:08:24;95766.78;;;16.95;93.60
52935;BME280;38802;50.198;19.796;2022-08-14T06:11:09;95769.51;;;16.96;93.38
52935;BME280;38802;50.198;19.796;2022-08-14T06:13:47;95766.06;;;16.99;93.47
52935;BME280;38802;50.198;19.796;2022-08-14T06:16:18;95768.94;;;17.01;93.55
52935;BME280;38802;50.198;19.796;2022-08-14T06:18:47;95771.09;;;17.04;93.50
52935;BME280;38802;50.198;19.796;2022-08-14T06:21:21;95768.80;;;17.05;93.60
52935;BME280;38802;50.198;19.796;2022-08-14T06:23:50;95766.55;;;17.08;93.64
52935;BME280;38802;50.198;19.796;2022-08-14T06:26:18;95765.93;;;17.10;93.39
52935;BME280;38802;50.198;19.796;2022-08-14T06:28:49;95762.99;;;17.11;93.51
52935;BME280;38802;50.198;19.796;2022-08-14T06:31:20;95765.54;;;17.14;93.50
52935;BME280;38802;50.198;19.796;2022-08-14T06:33:49;95770.06;;;17.15;93.67
52935;BME280;38802;50.198;19.796;2022-08-14T06:36:37;95768.42;;;17.17;93.63
52935;BME280;38802;50.198;19.796;2022-08-14T06:39:07;95763.90;;;17.20;93.67
52935;BME280;38802;50.198;19.796;2022-08-14T06:41:38;95758.98;;;17.21;93.68
52935;BME280;38802;50.198;19.796;2022-08-14T06:44:27;95756.38;;;17.24;93.64
52935;BME280;38802;50.198;19.796;2022-08-14T06:47:03;95759.23;;;17.27;93.56
52935;BME280;38802;50.198;19.796;2022-08-14T06:49:32;95753.49;;;17.28;93.59
52935;BME280;38802;50.198;19.796;2022-08-14T06:52:15;95754.51;;;17.28;93.42
52935;BME280;38802;50.198;19.796;2022-08-14T06:54:44;95754.03;;;17.29;93.48
52935;BME280;38802;50.198;19.796;2022-08-14T06:57:12;95751.56;;;17.33;93.61
52935;BME280;38802;50.198;19.796;2022-08-14T06:59:41;95752.75;;;17.36;93.62
52935;BME280;38802;50.198;19.796;2022-08-14T07:02:10;95749.84;;;17.40;93.92
52935;BME280;38802;50.198;19.796;2022-08-14T07:04:56;95749.14;;;17.47;93.97
52935;BME280;38802;50.198;19.796;2022-08-14T07:07:50;95750.54;;;17.54;93.84
52935;BME280;38802;50.198;19.796;2022-08-14T07:10:19;95747.16;;;17.59;93.92
52935;BME280;38802;50.198;19.796;2022-08-14T07:12:52;95750.49;;;17.67;93.94
52935;BME280;38802;50.198;19.796;2022-08-14T07:15:32;95750.10;;;17.73;93.93
52935;BME280;38802;50.198;19.796;2022-08-14T07:18:07;95746.39;;;17.82;94.28
52935;BME280;38802;50.198;19.796;2022-08-14T07:20:37;95747.67;;;17.86;93.83
52935;BME280;38802;50.198;19.796;2022-08-14T07:23:07;95745.21;;;17.88;93.84
52935;BME280;38802;50.198;19.796;2022-08-14T07:25:39;95748.06;;;17.89;93.68
52935;BME280;38802;50.198;19.796;2022-08-14T07:28:13;95750.27;;;17.91;93.82
52935;BME280;38802;50.198;19.796;2022-08-14T07:30:49;95754.60;;;17.90;93.66
52935;BME280;38802;50.198;19.796;2022-08-14T07:33:19;95749.71;;;17.88;93.81
52935;BME280;38802;50.198;19.796;2022-08-14T07:35:58;95750.03;;;17.87;93.63
52935;BME280;38802;50.198;19.796;2022-08-14T07:38:28;95747.83;;;17.89;93.58
52935;BME280;38802;50.198;19.796;2022-08-14T07:41:05;95748.66;;;17.91;93.63
52935;BME280;38802;50.198;19.796;2022-08-14T07:43:43;95751.03;;;17.91;93.55
52935;BME280;38802;50.198;19.796;2022-08-14T07:46:22;95747.15;;;17.91;93.56
52935;BME280;38802;50.198;19.796;2022-08-14T07:48:56;95752.16;;;17.93;93.61
52935;BME280;38802;50.198;19.796;2022-08-14T07:51:25;95751.27;;;17.90;93.85
52935;BME280;38802;50.198;19.796;2022-08-14T07:54:05;95756.05;;;17.85;93.69
52935;BME280;38802;50.198;19.796;2022-08-14T07:56:40;95758.86;;;17.84;93.90
52935;BME280;38802;50.198;19.796;2022-08-14T07:59:16;95761.89;;;17.82;93.82
52935;BME280;38802;50.198;19.796;2022-08-14T08:02:12;95763.86;;;17.82;93.79
52935;BME280;38802;50.198;19.796;2022-08-14T08:04:51;95764.61;;;17.83;93.94
52935;BME280;38802;50.198;19.796;2022-08-14T08:07:29;95768.58;;;17.82;94.01
52935;BME280;38802;50.198;19.796;2022-08-14T08:10:01;95768.13;;;17.81;93.88
52935;BME280;38802;50.198;19.796;2022-08-14T08:13:15;95765.46;;;17.76;93.98
52935;BME280;38802;50.198;19.796;2022-08-14T08:15:52;95765.84;;;17.74;94.00
52935;BME280;38802;50.198;19.796;2022-08-14T08:18:21;95764.96;;;17.75;94.08
52935;BME280;38802;50.198;19.796;2022-08-14T08:20:56;95765.23;;;17.78;94.09
52935;BME280;38802;50.198;19.796;2022-08-14T08:23:28;95764.92;;;17.82;94.01
52935;BME280;38802;50.198;19.796;2022-08-14T08:26:07;95763.95;;;17.85;94.44
52935;BME280;38802;50.198;19.796;2022-08-14T08:28:35;95762.39;;;17.87;94.30
52935;BME280;38802;50.198;19.796;2022-08-14T08:31:05;95765.60;;;17.88;94.57
52935;BME280;38802;50.198;19.796;2022-08-14T08:33:35;95759.84;;;17.91;94.31
52935;BME280;38802;50.198;19.796;2022-08-14T08:36:07;95760.13;;;17.97;94.46
52935;BME280;38802;50.198;19.796;2022-08-14T08:38:48;95758.77;;;18.08;94.62
52935;BME280;38802;50.198;19.796;2022-08-14T08:41:46;95759.53;;;18.24;94.75
52935;BME280;38802;50.198;19.796;2022-08-14T08:44:20;95764.86;;;18.35;94.56
52935;BME280;38802;50.198;19.796;2022-08-14T08:47:01;95762.48;;;18.44;94.59
52935;BME280;38802;50.198;19.796;2022-08-14T08:49:38;95762.36;;;18.56;94.32
52935;BME280;38802;50.198;19.796;2022-08-14T08:52:15;95758.17;;;18.67;94.22
52935;BME280;38802;50.198;19.796;2022-08-14T08:54:55;95757.10;;;18.80;94.40
52935;BME280;38802;50.198;19.796;2022-08-14T08:57:25;95752.98;;;18.91;94.14
52935;BME280;38802;50.198;19.796;2022-08-14T08:59:53;95749.93;;;19.01;94.26
52935;BME280;38802;50.198;19.796;2022-08-14T09:02:25;95752.75;;;19.14;94.21
52935;BME280;38802;50.198;19.796;2022-08-14T09:05:01;95750.53;;;19.23;93.44
52935;BME280;38802;50.198;19.796;2022-08-14T09:07:29;95752.74;;;19.29;93.36
52935;BME280;38802;50.198;19.796;2022-08-14T09:09:58;95750.30;;;19.33;92.92
52935;BME280;38802;50.198;19.796;2022-08-14T09:12:28;95749.73;;;19.34;92.72
52935;BME280;38802;50.198;19.796;2022-08-14T09:15:04;95749.86;;;19.37;93.00
52935;BME280;38802;50.198;19.796;2022-08-14T09:17:40;95750.86;;;19.40;92.88
52935;BME280;38802;50.198;19.796;2022-08-14T09:20:15;95748.26;;;19.45;93.09
52935;BME280;38802;50.198;19.796;2022-08-14T09:22:53;95752.67;;;19.49;92.79
52935;BME280;38802;50.198;19.796;2022-08-14T09:25:22;95751.15;;;19.47;91.61
52935;BME280;38802;50.198;19.796;2022-08-14T09:28:11;95750.66;;;19.46;92.20
52935;BME280;38802;50.198;19.796;2022-08-14T09:30:49;95747.98;;;19.46;92.09
52935;BME280;38802;50.198;19.796;2022-08-14T09:42:27;95749.03;;;19.60;91.73
52935;BME280;38802;50.198;19.796;2022-08-14T09:47:47;95751.08;;;19.87;91.44
52935;BME280;38802;50.198;19.796;2022-08-14T09:50:20;95749.55;;;19.92;91.13
52935;BME280;38802;50.198;19.796;2022-08-14T09:52:59;95746.33;;;19.98;91.03
52935;BME280;38802;50.198;19.796;2022-08-14T09:55:33;95749.95;;;20.10;91.03
52935;BME280;38802;50.198;19.796;2022-08-14T09:58:19;95749.52;;;20.21;90.35
52935;BME280;38802;50.198;19.796;2022-08-14T10:00:55;95748.78;;;20.24;90.30
52935;BME280;38802;50.198;19.796;2022-08-14T10:03:35;95752.70;;;20.25;90.11
52935;BME280;38802;50.198;19.796;2022-08-14T10:06:09;95751.66;;;20.32;90.05
52935;BME280;38802;50.198;19.796;2022-08-14T10:08:48;95752.20;;;20.34;89.78
52935;BME280;38802;50.198;19.796;2022-08-14T10:11:27;95753.05;;;20.39;90.22
52935;BME280;38802;50.198;19.796;2022-08-14T10:14:19;95750.21;;;20.46;89.54
52935;BME280;38802;50.198;19.796;2022-08-14T10:17:02;95750.76;;;20.51;89.76
52935;BME280;38802;50.198;19.796;2022-08-14T10:19:46;95744.86;;;20.57;89.59
52935;BME280;38802;50.198;19.796;2022-08-14T10:22:23;95745.94;;;20.61;88.95
52935;BME280;38802;50.198;19.796;2022-08-14T10:25:15;95744.06;;;20.66;89.01
52935;BME280;38802;50.198;19.796;2022-08-14T10:27:56;95747.09;;;20.67;87.91
52935;BME280;38802;50.198;19.796;2022-08-14T10:30:32;95745.91;;;20.69;88.97
52935;BME280;38802;50.198;19.796;2022-08-14T10:33:03;95747.09;;;20.77;89.02
52935;BME280;38802;50.198;19.796;2022-08-14T10:35:42;95748.21;;;20.80;88.69
52935;BME280;38802;50.198;19.796;2022-08-14T10:38:26;95748.85;;;20.83;88.49
52935;BME280;38802;50.198;19.796;2022-08-14T10:40:54;95751.75;;;20.89;88.02
52935;BME280;38802;50.198;19.796;2022-08-14T10:43:26;95753.88;;;20.95;87.12
52935;BME280;38802;50.198;19.796;2022-08-14T10:45:59;95754.89;;;21.00;87.14
52935;BME280;38802;50.198;19.796;2022-08-14T10:48:59;95757.87;;;21.00;86.44
52935;BME280;38802;50.198;19.796;2022-08-14T10:51:32;95757.45;;;20.97;85.45
52935;BME280;38802;50.198;19.796;2022-08-14T10:54:11;95756.23;;;20.99;86.56
52935;BME280;38802;50.198;19.796;2022-08-14T10:57:14;95749.84;;;21.05;86.91
52935;BME280;38802;50.198;19.796;2022-08-14T10:59:45;95753.80;;;21.09;86.51
52935;BME280;38802;50.198;19.796;2022-08-14T11:02:33;95752.66;;;21.05;85.21
52935;BME280;38802;50.198;19.796;2022-08-14T11:05:24;95751.52;;;21.03;84.50
52935;BME280;38802;50.198;19.796;2022-08-14T11:07:57;95750.70;;;21.12;84.71
52935;BME280;38802;50.198;19.796;2022-08-14T11:13:16;95742.14;;;21.49;85.35
52935;BME280;38802;50.198;19.796;2022-08-14T11:15:47;95739.64;;;21.53;84.17
52935;BME280;38802;50.198;19.796;2022-08-14T11:18:17;95743.18;;;21.52;83.24
52935;BME280;38802;50.198;19.796;2022-08-14T11:20:59;95751.79;;;21.50;82.81
52935;BME280;38802;50.198;19.796;2022-08-14T11:23:32;95754.16;;;21.48;82.95
52935;BME280;38802;50.198;19.796;2022-08-14T11:26:07;95756.70;;;21.44;82.98
52935;BME280;38802;50.198;19.796;2022-08-14T11:28:40;95754.77;;;21.44;83.55
52935;BME280;38802;50.198;19.796;2022-08-14T11:31:21;95756.16;;;21.47;83.51
52935;BME280;38802;50.198;19.796;2022-08-14T11:33:53;95756.29;;;21.46;82.94
52935;BME280;38802;50.198;19.796;2022-08-14T11:36:27;95759.02;;;21.41;83.01
52935;BME280;38802;50.198;19.796;2022-08-14T11:39:22;95760.20;;;21.37;82.42
52935;BME280;38802;50.198;19.796;2022-08-14T11:42:02;95761.14;;;21.34;82.86
52935;BME280;38802;50.198;19.796;2022-08-14T11:45:03;95764.38;;;21.34;82.98
52935;BME280;38802;50.198;19.796;2022-08-14T11:47:56;95767.84;;;21.34;83.07
52935;BME280;38802;50.198;19.796;2022-08-14T11:50:40;95770.52;;;21.34;82.58
52935;BME280;38802;50.198;19.796;2022-08-14T11:53:21;95771.63;;;21.37;82.83
52935;BME280;38802;50.198;19.796;2022-08-14T11:55:55;95771.91;;;21.48;82.61
52935;BME280;38802;50.198;19.796;2022-08-14T11:58:33;95775.81;;;21.53;82.05
52935;BME280;38802;50.198;19.796;2022-08-14T12:01:05;95775.81;;;21.50;81.85
52935;BME280;38802;50.198;19.796;2022-08-14T12:03:46;95775.53;;;21.47;81.68
52935;BME280;38802;50.198;19.796;2022-08-14T12:06:24;95773.21;;;21.45;81.51
52935;BME280;38802;50.198;19.796;2022-08-14T12:09:06;95772.77;;;21.43;81.11
52935;BME280;38802;50.198;19.796;2022-08-14T12:11:42;95767.88;;;21.41;81.41
52935;BME280;38802;50.198;19.796;2022-08-14T12:14:14;95771.79;;;21.45;81.62
52935;BME280;38802;50.198;19.796;2022-08-14T12:17:04;95765.30;;;21.52;81.45
52935;BME280;38802;50.198;19.796;2022-08-14T12:19:47;95765.85;;;21.60;80.75
52935;BME280;38802;50.198;19.796;2022-08-14T12:25:02;95759.38;;;21.69;80.81
52935;BME280;38802;50.198;19.796;2022-08-14T12:27:43;95760.80;;;21.74;80.85
52935;BME280;38802;50.198;19.796;2022-08-14T12:33:19;95752.84;;;21.86;80.84
52935;BME280;38802;50.198;19.796;2022-08-14T12:35:59;95749.48;;;21.97;80.56
52935;BME280;38802;50.198;19.796;2022-08-14T12:38:42;95745.25;;;22.03;80.50
52935;BME280;38802;50.198;19.796;2022-08-14T12:41:15;95750.11;;;22.01;80.02
52935;BME280;38802;50.198;19.796;2022-08-14T12:43:52;95750.62;;;21.96;79.99
52935;BME280;38802;50.198;19.796;2022-08-14T12:46:30;95751.65;;;21.91;79.88
52935;BME280;38802;50.198;19.796;2022-08-14T12:49:02;95741.59;;;21.96;80.06
52935;BME280;38802;50.198;19.796;2022-08-14T12:51:34;95739.34;;;22.06;79.52
52935;BME280;38802;50.198;19.796;2022-08-14T12:54:13;95733.87;;;22.07;77.82
52935;BME280;38802;50.198;19.796;2022-08-14T12:57:07;95734.28;;;21.97;78.36
52935;BME280;38802;50.198;19.796;2022-08-14T12:59:44;95728.91;;;21.94;78.54
52935;BME280;38802;50.198;19.796;2022-08-14T13:02:21;95722.60;;;22.00;77.70
52935;BME280;38802;50.198;19.796;2022-08-14T13:04:54;95719.51;;;22.06;78.39
52935;BME280;38802;50.198;19.796;2022-08-14T13:07:27;95716.90;;;22.12;77.57
52935;BME280;38802;50.198;19.796;2022-08-14T13:10:00;95718.02;;;22.09;77.39
52935;BME280;38802;50.198;19.796;2022-08-14T13:12:53;95716.19;;;22.03;77.32
52935;BME280;38802;50.198;19.796;2022-08-14T13:15:46;95712.92;;;22.06;77.37
52935;BME280;38802;50.198;19.796;2022-08-14T13:18:25;95711.80;;;22.19;77.52
52935;BME280;38802;50.198;19.796;2022-08-14T13:20:56;95698.86;;;22.34;76.85
52935;BME280;38802;50.198;19.796;2022-08-14T13:23:32;95698.56;;;22.43;76.44
52935;BME280;38802;50.198;19.796;2022-08-14T13:26:03;95695.98;;;22.43;76.47
52935;BME280;38802;50.198;19.796;2022-08-14T13:28:32;95689.61;;;22.38;75.71
52935;BME280;38802;50.198;19.796;2022-08-14T13:31:25;95687.96;;;22.35;76.11
52935;BME280;38802;50.198;19.796;2022-08-14T13:33:57;95684.52;;;22.35;76.39
52935;BME280;38802;50.198;19.796;2022-08-14T13:36:27;95681.30;;;22.40;76.60
52935;BME280;38802;50.198;19.796;2022-08-14T13:39:20;95679.09;;;22.47;75.60
52935;BME280;38802;50.198;19.796;2022-08-14T13:41:49;95676.40;;;22.46;76.24
52935;BME280;38802;50.198;19.796;2022-08-14T13:44:25;95674.23;;;22.46;75.65
52935;BME280;38802;50.198;19.796;2022-08-14T13:46:54;95674.65;;;22.46;75.80
52935;BME280;38802;50.198;19.796;2022-08-14T13:49:23;95676.11;;;22.48;75.98
52935;BME280;38802;50.198;19.796;2022-08-14T13:51:52;95675.67;;;22.51;75.50
52935;BME280;38802;50.198;19.796;2022-08-14T13:54:28;95672.04;;;22.46;75.28
52935;BME280;38802;50.198;19.796;2022-08-14T13:57:02;95667.20;;;22.42;75.61
52935;BME280;38802;50.198;19.796;2022-08-14T13:59:33;95658.45;;;22.44;75.31
52935;BME280;38802;50.198;19.796;2022-08-14T14:02:06;95657.17;;;22.46;75.27